createdAt,value
2022-08-31T00:06:38.656Z,99047.20
2022-08-31T00:16:48.459Z,99045.23
2022-08-31T00:26:55.628Z,99051.53
2022-08-31T00:37:04.281Z,99048.48
2022-08-31T00:47:12.490Z,99049.45
2022-08-31T00:57:20.825Z,99042.46
2022-08-31T01:07:38.197Z,99042.55
2022-08-31T01:17:48.022Z,99031.66
2022-08-31T01:27:56.490Z,99025.27
2022-08-31T01:38:04.664Z,99023.48
2022-08-31T01:48:11.886Z,99012.75
2022-08-31T01:58:19.577Z,99010.91
2022-08-31T02:08:26.756Z,99008.71
2022-08-31T02:18:35.566Z,99007.08
2022-08-31T02:28:42.953Z,99011.73
2022-08-31T02:38:50.440Z,99018.09
2022-08-31T02:48:58.325Z,99024.75
2022-08-31T02:59:05.854Z,99018.34
2022-08-31T03:09:13.202Z,99010.36
2022-08-31T03:19:20.663Z,99013.73
2022-08-31T03:29:27.966Z,99015.73
2022-08-31T03:39:35.041Z,99023.21
2022-08-31T03:49:42.637Z,99023.83
2022-08-31T03:59:53.277Z,99023.54
2022-08-31T04:10:01.107Z,99033.10
2022-08-31T04:20:05.767Z,99030.20
2022-08-31T04:30:14.646Z,99033.52
2022-08-31T04:40:25.958Z,99038.38
2022-08-31T04:50:33.537Z,99041.49
2022-08-31T05:00:42.910Z,99041.85
2022-08-31T05:10:50.393Z,99046.53
2022-08-31T05:20:57.563Z,99047.69
2022-08-31T05:31:07.283Z,99055.91
2022-08-31T05:41:15.180Z,99066.02
2022-08-31T05:51:22.481Z,99076.33
2022-08-31T06:01:32.657Z,99084.61
2022-08-31T06:11:42.289Z,99090.10
2022-08-31T06:21:51.061Z,99106.23
2022-08-31T06:31:57.187Z,99116.92
2022-08-31T06:42:04.491Z,99119.36
2022-08-31T06:52:11.629Z,99118.23
2022-08-31T07:02:19.609Z,99122.79
2022-08-31T07:12:26.939Z,99132.81
2022-08-31T07:32:40.654Z,99140.50
2022-08-31T07:42:48.490Z,99137.94
2022-08-31T07:52:58.740Z,99147.99
2022-08-31T08:13:13.718Z,99154.05
2022-08-31T08:23:26.894Z,99152.27
2022-08-31T08:33:36.831Z,99146.73
2022-08-31T08:43:53.554Z,99148.08
2022-08-31T08:54:03.196Z,99149.94
2022-08-31T09:04:16.024Z,99155.09
2022-08-31T09:14:25.698Z,99163.02
2022-08-31T09:24:32.847Z,99157.30
2022-08-31T09:34:41.350Z,99141.23
2022-08-31T09:44:48.522Z,99133.48
2022-08-31T09:55:15.967Z,99123.00
2022-08-31T10:05:28.496Z,99121.72
2022-08-31T10:15:33.790Z,99122.95
2022-08-31T10:25:46.444Z,99111.95
2022-08-31T10:35:52.439Z,99105.78
2022-08-31T10:46:03.795Z,99107.14
2022-08-31T10:56:15.480Z,99101.22
2022-08-31T11:06:20.733Z,99094.67
2022-08-31T11:16:34.091Z,99093.62
2022-08-31T11:26:46.431Z,99090.71
2022-08-31T11:47:09.063Z,99076.55
2022-08-31T11:57:21.193Z,99084.08
2022-08-31T12:07:30.349Z,99077.67
2022-08-31T12:17:45.880Z,99063.29
2022-08-31T12:27:51.823Z,99057.66
2022-08-31T12:38:04.600Z,99059.64
2022-08-31T12:48:11.311Z,99057.44
2022-08-31T13:08:28.859Z,99042.13
2022-08-31T13:18:36.880Z,99045.98
2022-08-31T13:28:42.199Z,99048.27
2022-08-31T13:38:47.592Z,99044.38
2022-08-31T13:49:02.609Z,99045.33
2022-08-31T13:59:26.757Z,99046.20
2022-08-31T14:09:34.114Z,99035.05
2022-08-31T14:19:44.032Z,99029.86
2022-08-31T14:29:52.469Z,99033.11
2022-08-31T14:40:07.055Z,99039.65
2022-08-31T14:50:18.853Z,99036.73
2022-08-31T15:00:25.855Z,99035.90
2022-08-31T15:10:33.862Z,99028.83
2022-08-31T15:20:41.706Z,99028.32
2022-08-31T15:30:47.952Z,99024.55
2022-08-31T15:40:55.260Z,99031.73
2022-08-31T15:51:03.339Z,99026.33
2022-08-31T16:01:07.666Z,99022.90
2022-08-31T16:11:15.532Z,99015.86
2022-08-31T16:21:23.195Z,99006.02
2022-08-31T16:31:30.932Z,99007.13
2022-08-31T16:41:38.249Z,99003.77
2022-08-31T16:51:48.457Z,99003.29
2022-08-31T17:01:56.635Z,99007.46
2022-08-31T17:12:07.765Z,99015.70
2022-08-31T17:22:23.352Z,99021.21
2022-08-31T17:32:32.469Z,99022.52
2022-08-31T17:42:39.601Z,99033.54
2022-08-31T17:52:47.714Z,99044.54
2022-08-31T18:02:55.171Z,99050.70
2022-08-31T18:13:03.381Z,99055.45
2022-08-31T18:23:10.877Z,99064.55
2022-08-31T18:33:18.650Z,99074.38
2022-08-31T18:43:46.479Z,99076.42
2022-08-31T18:53:53.803Z,99078.04
2022-08-31T19:04:00.236Z,99086.60
2022-08-31T19:14:08.161Z,99089.80
2022-08-31T19:24:19.170Z,99086.83
2022-08-31T19:34:29.624Z,99080.14
2022-08-31T19:44:55.971Z,99076.41
2022-08-31T19:55:09.437Z,99078.02
2022-08-31T20:05:16.950Z,99075.14
2022-08-31T20:15:24.506Z,99081.98
2022-08-31T20:25:30.548Z,99081.44
2022-08-31T20:46:02.082Z,99088.85
2022-08-31T20:56:10.387Z,99093.14
2022-08-31T21:06:24.229Z,99093.36
2022-08-31T21:16:33.260Z,99093.00
2022-08-31T21:26:40.001Z,99094.13
2022-08-31T21:36:48.635Z,99087.23
2022-08-31T21:46:56.004Z,99087.64
2022-08-31T21:57:05.259Z,99093.49
2022-08-31T22:07:14.692Z,99089.90
2022-08-31T22:17:36.940Z,99096.17
2022-08-31T22:27:51.479Z,99091.18
2022-08-31T22:37:58.567Z,99086.44
2022-08-31T22:48:04.901Z,99076.06
2022-08-31T22:58:12.430Z,99071.55
2022-08-31T23:08:22.592Z,99070.48
2022-08-31T23:18:31.450Z,99068.34
2022-08-31T23:28:37.764Z,99069.94
2022-08-31T23:38:50.009Z,99067.22
2022-08-31T23:48:57.306Z,99070.78
2022-08-31T23:59:07.321Z,99065.41
